Buoy 46612

sailwx.info

Track history (hours):
 
Tides and Currents Weather Stations Pressure Air Temp Water Temp Dewpoint Dewpoint Depression Visibility Wind Speed Wind Dir Waves Ship Positions

Drifting buoy 46612

Last reported at 2015-Jul-03 23:00 UTC. Time now 2015-Jul-04 08:26 UTC.
Position N 29°28' W 141°12'.

Water temperature 22.5 ° C

Date/timePositionNaut miles runAvg speedWind from/ knotsBaromVisibWave heightAir tempDewpointWater temp
2015-Jul-03 23:00N 29°28' W 141°12'1 0.6 22.5
2015-Jul-03 21:00N 29°28' W 141°11'0 0.2 22.2
2015-Jul-03 20:00N 29°29' W 141°11'1 0.3 22.2
2015-Jul-03 18:00N 29°28' W 141°11'1 0.4 22.1
2015-Jul-03 16:00N 29°28' W 141°11'1 0.3 22.0
2015-Jul-03 14:00N 29°27' W 141°11'1 0.5 22.0
2015-Jul-03 11:00N 29°26' W 141°09'2 0.8 22.1
2015-Jul-03 08:00N 29°25' W 141°07'3 0.5 22.1
2015-Jul-03 03:00N 29°25' W 141°04'2 0.7 22.4
2015-Jul-03 00:00N 29°27' W 141°02'0 0.0 22.4
2015-Jul-02 23:00N 29°27' W 141°02'0 0.3 22.6
2015-Jul-02 22:00N 29°26' W 141°02'0 0.0 22.5
2015-Jul-02 17:00N 29°26' W 141°02'1 0.5 22.0
2015-Jul-02 15:00N 29°26' W 141°02'2 0.6 22.0
2015-Jul-02 11:00N 29°25' W 140°59'6 0.4 22.0
2015-Jul-01 21:00N 29°25' W 140°52'3 0.3 22.5
2015-Jul-01 12:00N 29°24' W 140°49'0 0.1 22.2
2015-Jul-01 09:00N 29°23' W 140°49'5 0.7 22.2
2015-Jul-01 02:00N 29°24' W 140°43'2 0.4 22.4
2015-Jun-30 22:00N 29°23' W 140°41'10 0.4 22.4
2015-Jun-29 23:00N 29°22' W 140°30'1 0.4 22.2
2015-Jun-29 20:00N 29°22' W 140°28'2 0.4 22.1
2015-Jun-29 16:00N 29°22' W 140°27'1 0.5 21.8
2015-Jun-29 15:00N 29°22' W 140°26'3 0.3 21.8
2015-Jun-29 06:00N 29°22' W 140°23'4 0.6 22.3
2015-Jun-29 00:00N 29°21' W 140°19'1 0.7 22.9
2015-Jun-28 23:00N 29°21' W 140°18'4 0.5 22.9
2015-Jun-28 15:00N 29°23' W 140°14'0 0.4 21.9
2015-Jun-28 14:00N 29°23' W 140°14'3 0.3 22.0
2015-Jun-28 02:00N 29°23' W 140°10'4 0.5 23.6
2015-Jun-27 17:00N 29°25' W 140°06'4 0.3 21.9
2015-Jun-27 03:00N 29°27' W 140°01'4 0.5 22.1
2015-Jun-26 19:00N 29°29' W 139°57'3 0.3 21.6
2015-Jun-26 07:00N 29°31' W 139°54'0 0.5 21.7
2015-Jun-26 06:00N 29°31' W 139°53'2 0.8 21.7
2015-Jun-26 04:00N 29°31' W 139°51'0 0.2 21.7
2015-Jun-26 03:00N 29°31' W 139°52'1 0.6 21.8
2015-Jun-26 02:00N 29°31' W 139°51'1 0.7 21.8
2015-Jun-26 01:00N 29°31' W 139°50'0 0.2 21.8
2015-Jun-25 22:00N 29°31' W 139°49'2 2.1 21.8
2015-Jun-25 21:00N 29°33' W 139°48'0 0.0 21.7
2015-Jun-25 20:00N 29°33' W 139°48'1 0.9 21.7
2015-Jun-25 19:00N 29°33' W 139°47'0 0.0 21.6
2015-Jun-25 18:00N 29°33' W 139°47'0 0.0 21.6
2015-Jun-25 17:00N 29°33' W 139°47'0 0.2 21.6
2015-Jun-25 16:00N 29°33' W 139°47'0 0.1 21.6
2015-Jun-25 15:00N 29°33' W 139°47'0 0.3 21.6
2015-Jun-25 14:00N 29°33' W 139°47'2 0.3 21.6
2015-Jun-25 07:00N 29°33' W 139°44'1 0.7 21.8
2015-Jun-25 06:00N 29°34' W 139°43'0 0.5 21.9
2015-Jun-25 05:00N 29°34' W 139°43'0 0.1 22.0
2015-Jun-25 03:00N 29°33' W 139°43'2 0.5 22.1
2015-Jun-25 00:00N 29°33' W 139°41'0 0.1 22.1
2015-Jun-24 23:00N 29°33' W 139°41'1 0.5 22.1
2015-Jun-24 21:00N 29°33' W 139°40'1 0.6 22.0
2015-Jun-24 20:00N 29°34' W 139°40'0 0.2 21.9
2015-Jun-24 19:00N 29°34' W 139°40'1 0.9 21.9
2015-Jun-24 18:00N 29°34' W 139°39'0 0.0 21.8
2015-Jun-24 17:00N 29°34' W 139°39'3 0.9 21.8
2015-Jun-24 14:00N 29°35' W 139°36'0 0.0 21.9
2015-Jun-24 08:00N 29°35' W 139°36'1 0.2 22.0
2015-Jun-24 05:00N 29°35' W 139°36'   22.1
Track history (hours):
 
Tides and Currents Weather Stations Pressure Air Temp Water Temp Dewpoint Dewpoint Depression Visibility Wind Speed Wind Dir Waves Ship Positions

Drifting buoy 46612

Last reported at 2015-Jul-03 23:00 UTC. Time now 2015-Jul-04 08:26 UTC.
Position N 29°28' W 141°12'.

Water temperature 22.5 ° C

Date/timePositionNaut miles runAvg speedWind from/ knotsBaromVisibWave heightAir tempDewpointWater temp
2015-Jul-03 23:00N 29°28' W 141°12'1 0.6 22.5
2015-Jul-03 21:00N 29°28' W 141°11'0 0.2 22.2
2015-Jul-03 20:00N 29°29' W 141°11'1 0.3 22.2
2015-Jul-03 18:00N 29°28' W 141°11'1 0.4 22.1
2015-Jul-03 16:00N 29°28' W 141°11'1 0.3 22.0
2015-Jul-03 14:00N 29°27' W 141°11'1 0.5 22.0
2015-Jul-03 11:00N 29°26' W 141°09'2 0.8 22.1
2015-Jul-03 08:00N 29°25' W 141°07'3 0.5 22.1
2015-Jul-03 03:00N 29°25' W 141°04'2 0.7 22.4
2015-Jul-03 00:00N 29°27' W 141°02'0 0.0 22.4
2015-Jul-02 23:00N 29°27' W 141°02'0 0.3 22.6
2015-Jul-02 22:00N 29°26' W 141°02'0 0.0 22.5
2015-Jul-02 17:00N 29°26' W 141°02'1 0.5 22.0
2015-Jul-02 15:00N 29°26' W 141°02'2 0.6 22.0
2015-Jul-02 11:00N 29°25' W 140°59'6 0.4 22.0
2015-Jul-01 21:00N 29°25' W 140°52'3 0.3 22.5
2015-Jul-01 12:00N 29°24' W 140°49'0 0.1 22.2
2015-Jul-01 09:00N 29°23' W 140°49'5 0.7 22.2
2015-Jul-01 02:00N 29°24' W 140°43'2 0.4 22.4
2015-Jun-30 22:00N 29°23' W 140°41'10 0.4 22.4
2015-Jun-29 23:00N 29°22' W 140°30'1 0.4 22.2
2015-Jun-29 20:00N 29°22' W 140°28'2 0.4 22.1
2015-Jun-29 16:00N 29°22' W 140°27'1 0.5 21.8
2015-Jun-29 15:00N 29°22' W 140°26'3 0.3 21.8
2015-Jun-29 06:00N 29°22' W 140°23'4 0.6 22.3
2015-Jun-29 00:00N 29°21' W 140°19'1 0.7 22.9
2015-Jun-28 23:00N 29°21' W 140°18'4 0.5 22.9
2015-Jun-28 15:00N 29°23' W 140°14'0 0.4 21.9
2015-Jun-28 14:00N 29°23' W 140°14'3 0.3 22.0
2015-Jun-28 02:00N 29°23' W 140°10'4 0.5 23.6
2015-Jun-27 17:00N 29°25' W 140°06'4 0.3 21.9
2015-Jun-27 03:00N 29°27' W 140°01'4 0.5 22.1
2015-Jun-26 19:00N 29°29' W 139°57'3 0.3 21.6
2015-Jun-26 07:00N 29°31' W 139°54'0 0.5 21.7
2015-Jun-26 06:00N 29°31' W 139°53'2 0.8 21.7
2015-Jun-26 04:00N 29°31' W 139°51'0 0.2 21.7
2015-Jun-26 03:00N 29°31' W 139°52'1 0.6 21.8
2015-Jun-26 02:00N 29°31' W 139°51'1 0.7 21.8
2015-Jun-26 01:00N 29°31' W 139°50'0 0.2 21.8
2015-Jun-25 22:00N 29°31' W 139°49'2 2.1 21.8
2015-Jun-25 21:00N 29°33' W 139°48'0 0.0 21.7
2015-Jun-25 20:00N 29°33' W 139°48'1 0.9 21.7
2015-Jun-25 19:00N 29°33' W 139°47'0 0.0 21.6
2015-Jun-25 18:00N 29°33' W 139°47'0 0.0 21.6
2015-Jun-25 17:00N 29°33' W 139°47'0 0.2 21.6
2015-Jun-25 16:00N 29°33' W 139°47'0 0.1 21.6
2015-Jun-25 15:00N 29°33' W 139°47'0 0.3 21.6
2015-Jun-25 14:00N 29°33' W 139°47'2 0.3 21.6
2015-Jun-25 07:00N 29°33' W 139°44'1 0.7 21.8
2015-Jun-25 06:00N 29°34' W 139°43'0 0.5 21.9
2015-Jun-25 05:00N 29°34' W 139°43'0 0.1 22.0
2015-Jun-25 03:00N 29°33' W 139°43'2 0.5 22.1
2015-Jun-25 00:00N 29°33' W 139°41'0 0.1 22.1
2015-Jun-24 23:00N 29°33' W 139°41'1 0.5 22.1
2015-Jun-24 21:00N 29°33' W 139°40'1 0.6 22.0
2015-Jun-24 20:00N 29°34' W 139°40'0 0.2 21.9
2015-Jun-24 19:00N 29°34' W 139°40'1 0.9 21.9
2015-Jun-24 18:00N 29°34' W 139°39'0 0.0 21.8
2015-Jun-24 17:00N 29°34' W 139°39'3 0.9 21.8
2015-Jun-24 14:00N 29°35' W 139°36'0 0.0 21.9
2015-Jun-24 08:00N 29°35' W 139°36'1 0.2 22.0
2015-Jun-24 05:00N 29°35' W 139°36'   22.1

Dump ship's entire track history